Terminal Aerodrome Forecast
Issued by NWS Grand Forks, ND

Home | Current Version | Previous Version | Text Only | Print | Product List | Glossary Off
Versions: 1 2 3 4 5 6 7 8 9 10 11 12 13 14 15 16 17 18 19 20 21

026
FTUS43 KFGF 041322 AAA
TAFFAR
TAF AMD
KFAR 041322Z 0413/0512 17012KT 5SM -SN BR OVC008
      TEMPO 0413/0415 2SM -SN BR OVC005
     FM041600 19010KT P6SM OVC010
     FM041800 25011KT P6SM BKN015
     FM042300 24008KT P6SM BKN020
     FM050100 22006KT P6SM BKN045=

USA.gov is the U.S. government's official web portal to all federal, state and local government web resources and services.